Aviation Digital Data Service (ADDS)

Output produced by METARs form (1936 UTC 25 March 2017)
found at http://www.aviationweather.gov/adds/metars/
 
LATI 251920Z 00000KT 6000 NSC 12/10 Q1019 NOSIG
TAF LATI 251700Z 2518/2618 VRB03KT 6000 NSC 
     TEMPO 2518/2605 3000 BR 
     PROB 40 2522/2603 0800 FG 
     TEMPO 2608/2618 22012KT FEW030CB BKN050 
     BECMG 2613/2615 5000 TSRA SCT025CB
       
LATI 251920Z 00000KT 6000 NSC 12/10 Q1019 NOSIG
TAF LATI 251700Z 2518/2618 VRB03KT 6000 NSC 
     TEMPO 2518/2605 3000 BR 
     PROB 40 2522/2603 0800 FG 
     TEMPO 2608/2618 22012KT FEW030CB BKN050 
     BECMG 2613/2615 5000 TSRA SCT025CB